Sneads, FL (32460)

1:29 AM CDT on July 12, 2014 (GMT -0500)
Cypress (KFLMARIA3) Elev 138 ft | 30.67 °N, 85.07 °W | Change Station

Current weather conditions updated 2 seconds ago

Clear
Clear
74.0 °F
Feels Like 70 °F
N
0.0
Wind Variable Wind from ENE
Gusts 1.0 mph

Today is forecast to be Cooler than yesterday. Thunderstorms.

Today
High -- | Low -- °F
--% Chance of Precip.
Yesterday
High -- | Low -- °F
Precip. -- in
5:45 AM 7:44 PM
Full, 100% visible
Pressure 30.10 in
Visibility 10.0 miles
Clouds Clear
Heat Index 70 °F
Dew Point 73 °F
Humidity 99%
Rainfall 0.00 in
Snow Depth Not available.
UV 0 out of 12
Pollen 3.00 out of 12
Air Quality Not available.
Flu Activity Sporadic
METAR KMAI 120553Z AUTO 00000KT 10SM CLR 25/24 A3010 RMK AO2 SLP191 60000 T02500239 10311 20244 403280222 58010

More Conditions Fewer Conditions

Pressure 30.10 in
Visibility 10.0 miles
Clouds Clear
Heat Index 70 °F
Dew Point 73 °F
Humidity 99%
Rainfall 0.00 in
Snow Depth Not available.
UV 0 out of 12
Pollen 3.00 out of 12
Air Quality Not available.
Flu Activity Sporadic
METAR KMAI 120553Z AUTO 00000KT 10SM CLR 25/24 A3010 RMK AO2 SLP191 60000 T02500239 10311 20244 403280222 58010

More Conditions Fewer Conditions

10-Day Weather Forecast

Almanac

Astronomy

Jul. 12, 2014 Rise Set
Actual Time 5:45 AM CDT 7:44 PM CDT
Civil Twilight 5:18 AM CDT 8:12 PM CDT
Nautical Twilight 4:45 AM CDT 8:45 PM CDT
Astronomical Twilight 4:10 AM CDT 9:20 PM CDT
Moon 7:53 PM CDT 5:58 AM CDT
Length of Visible Light 14h 53m
Length of Day
13h 59m
Tomorrow will be 0m 50s shorter.
Full, 100% of the Moon is Illuminated
Today
Full
Jul 12
Full
Jul 18
Last Quarter
Jul 26
New
Aug 3
First Quarter

Today's Extremes

State Highs State Lows

Community

WunderPhotos

Upload Photos

1,732,719 photos uploaded!

Nearby

Snow Depth

Station Depth Elevation
No new snow has been reported.

Earthquake Activity

City Distance Mag. Time & Date
No recent earthquake activity has been reported nearby.
Minimum magnitude displayed is 2.5.

Coastal Water Temperatures

Place Temperature
No Stations Reporting

Nearby Weather Stations

Station Location Temp. Heat Index Dew Point Humidity Wind Precip. Elev Updated Type
APRSWXNET Donalsonville GA U, Sneads, FL 79 °F 83 °F 75 °F 89% SSE  at  0 mph 0.00 in / hr 114 ft 9:49 PM CDT MADIS
Cypress, Marianna, FL 74.0 °F 70 °F 73 °F 99% ENE  at  0.0 mph 0.00 in / hr 138 ft 1:29 AM CDT Rapid Fire

Show More Stations Show Fewer Stations